ENVR/VRY METAR and TAF weather

Enter ICAO airport designator
Station Type Date Time Source
ENVR METAR 2022/01/26 07:50 UTC NOAA

ENVR 260750Z 17017KT 9999 -RA BKN008 03/01 Q0994


Station Type Date Time Source
ENVR Decoded METAR 2022/01/26 07:50 UTC NOAA

Station name not available
Jan 26, 2022 - 02:50 AM EST / 2022.01.26 0750 UTC
Wind: from the S (170 degrees) at 20 MPH (17 KT):0
Visibility: greater than 7 mile(s):0
Sky conditions: mostly cloudy
Weather: light rain
Temperature: 37 F (3 C)
Dew Point: 33 F (1 C)
Relative Humidity: 86%
Pressure (altimeter): 29.35 in. Hg (0994 hPa)
ob: ENVR 260750Z 17017KT 9999 -RA BKN008 03/01 Q0994
cycle: 8

Station Type Date Time Source
ENVR TAF UTC NOAA

Error!

Example: see airport list